Peshtigo, Wisconsin
Current Conditions -  °F | °C
As of 9:35 PM on Saturday 24 Jan 2015 (Local Time) from KMNM Reporting Station
Overcast Overcast  
Wind Chill: 11°   Ceiling: 3700
Heat Index: 23°   Visibility: 10mi
Dew Point: 12°   Wind: 13mph
Humidity: 63%   Direction: 30°NNE
Pressure: 29.76"   Gusts: 22mph
Location:  45.05°N, 87.75°W
Report Text: KMNM 250335Z AUTO 03011G19KT 10SM FEW020 BKN037 OVC050 M05/M11 A2976 RMK AO1
Loading
Personal Weather Stations






























Interactive Weather Map New forecast layout! Learn more

10-Day Weather Forecast

Advertisements
Track Severe Weather on mobile